sensor_id;sensor_type;location;lat;lon;timestamp;P1;P2;P0
72509;PMS5003;60532;56.114;40.350;2022-08-02T00:01:15;8.75;7.00;5.00
72509;PMS5003;60532;56.114;40.350;2022-08-02T00:06:17;8.60;7.40;4.40
72509;PMS5003;60532;56.114;40.350;2022-08-02T00:11:18;7.50;7.50;6.00
72509;PMS5003;60532;56.114;40.350;2022-08-02T00:16:19;7.00;7.00;5.00
72509;PMS5003;60532;56.114;40.350;2022-08-02T00:21:21;5.60;5.40;4.00
72509;PMS5003;60532;56.114;40.350;2022-08-02T00:26:22;9.00;7.25;5.00
72509;PMS5003;60532;56.114;40.350;2022-08-02T00:31:22;5.00;5.00;4.25
72509;PMS5003;60532;56.114;40.350;2022-08-02T00:36:23;4.00;4.00;2.00
72509;PMS5003;60532;56.114;40.350;2022-08-02T00:41:26;6.00;6.00;4.00
72509;PMS5003;60532;56.114;40.350;2022-08-02T00:46:28;7.80;7.80;6.00
72509;PMS5003;60532;56.114;40.350;2022-08-02T00:51:28;7.00;7.00;5.00
72509;PMS5003;60532;56.114;40.350;2022-08-02T00:56:29;9.75;9.75;6.00
72509;PMS5003;60532;56.114;40.350;2022-08-02T01:01:30;8.50;7.25;5.00
72509;PMS5003;60532;56.114;40.350;2022-08-02T01:06:43;7.60;7.60;6.00
72509;PMS5003;60532;56.114;40.350;2022-08-02T01:11:43;4.25;4.25;3.00
72509;PMS5003;60532;56.114;40.350;2022-08-02T01:16:49;8.00;7.00;5.00
72509;PMS5003;60532;56.114;40.350;2022-08-02T01:21:53;8.80;7.80;6.00
72509;PMS5003;60532;56.114;40.350;2022-08-02T01:27:36;8.20;8.20;5.40
72509;PMS5003;60532;56.114;40.350;2022-08-02T01:32:30;8.80;7.40;5.60
72509;PMS5003;60532;56.114;40.350;2022-08-02T01:42:33;10.50;10.25;6.75
72509;PMS5003;60532;56.114;40.350;2022-08-02T01:47:36;9.20;8.00;5.20
72509;PMS5003;60532;56.114;40.350;2022-08-02T01:52:40;8.80;8.40;5.40
72509;PMS5003;60532;56.114;40.350;2022-08-02T01:57:50;9.00;8.20;6.00
72509;PMS5003;60532;56.114;40.350;2022-08-02T02:02:52;5.60;5.60;4.20
72509;PMS5003;60532;56.114;40.350;2022-08-02T02:07:56;6.00;6.00;4.00
72509;PMS5003;60532;56.114;40.350;2022-08-02T02:12:59;8.80;8.00;5.00
72509;PMS5003;60532;56.114;40.350;2022-08-02T02:18:01;7.00;7.00;5.40
72509;PMS5003;60532;56.114;40.350;2022-08-02T02:23:02;10.00;9.00;5.80
72509;PMS5003;60532;56.114;40.350;2022-08-02T02:28:13;12.25;10.25;6.00
72509;PMS5003;60532;56.114;40.350;2022-08-02T02:33:16;10.80;8.00;6.00
72509;PMS5003;60532;56.114;40.350;2022-08-02T02:38:18;7.20;7.20;4.60
72509;PMS5003;60532;56.114;40.350;2022-08-02T02:43:19;9.00;7.00;5.20
72509;PMS5003;60532;56.114;40.350;2022-08-02T02:48:21;8.20;8.20;5.20
72509;PMS5003;60532;56.114;40.350;2022-08-02T02:53:22;7.25;7.25;6.25
72509;PMS5003;60532;56.114;40.350;2022-08-02T02:58:23;8.80;8.00;5.40
72509;PMS5003;60532;56.114;40.350;2022-08-02T03:03:25;9.60;8.00;6.00
72509;PMS5003;60532;56.114;40.350;2022-08-02T03:08:25;7.00;6.00;4.00
72509;PMS5003;60532;56.114;40.350;2022-08-02T03:13:27;5.40;5.40;4.60
72509;PMS5003;60532;56.114;40.350;2022-08-02T03:18:38;6.00;6.00;5.00
72509;PMS5003;60532;56.114;40.350;2022-08-02T03:23:40;7.40;7.40;5.60
72509;PMS5003;60532;56.114;40.350;2022-08-02T03:28:41;8.00;8.00;6.00
72509;PMS5003;60532;56.114;40.350;2022-08-02T03:33:42;9.20;8.00;5.00
72509;PMS5003;60532;56.114;40.350;2022-08-02T03:38:43;8.00;7.50;5.00
72509;PMS5003;60532;56.114;40.350;2022-08-02T03:43:45;6.80;6.60;5.40
72509;PMS5003;60532;56.114;40.350;2022-08-02T03:48:47;9.80;8.00;5.20
72509;PMS5003;60532;56.114;40.350;2022-08-02T03:53:48;6.00;6.00;4.00
72509;PMS5003;60532;56.114;40.350;2022-08-02T03:59:04;7.00;7.00;5.00
72509;PMS5003;60532;56.114;40.350;2022-08-02T04:04:05;7.00;7.00;6.00
72509;PMS5003;60532;56.114;40.350;2022-08-02T04:09:06;8.00;8.00;5.75
72509;PMS5003;60532;56.114;40.350;2022-08-02T04:14:08;10.75;9.00;7.00
72509;PMS5003;60532;56.114;40.350;2022-08-02T04:19:14;8.00;8.00;6.00
72509;PMS5003;60532;56.114;40.350;2022-08-02T04:24:16;7.50;7.00;4.75
72509;PMS5003;60532;56.114;40.350;2022-08-02T04:29:17;7.50;7.50;4.75
72509;PMS5003;60532;56.114;40.350;2022-08-02T04:34:19;7.00;7.00;6.00
72509;PMS5003;60532;56.114;40.350;2022-08-02T04:39:20;8.50;8.50;6.25
72509;PMS5003;60532;56.114;40.350;2022-08-02T04:44:21;7.00;5.00;3.25
72509;PMS5003;60532;56.114;40.350;2022-08-02T04:49:23;6.50;6.00;4.75
72509;PMS5003;60532;56.114;40.350;2022-08-02T04:54:24;8.00;6.33;4.00
72509;PMS5003;60532;56.114;40.350;2022-08-02T04:59:25;7.00;5.33;5.00
72509;PMS5003;60532;56.114;40.350;2022-08-02T05:04:26;7.00;6.25;5.00
72509;PMS5003;60532;56.114;40.350;2022-08-02T05:09:26;7.33;7.33;5.67
72509;PMS5003;60532;56.114;40.350;2022-08-02T05:14:27;7.67;6.00;4.33
72509;PMS5003;60532;56.114;40.350;2022-08-02T05:19:27;10.67;8.67;6.00
72509;PMS5003;60532;56.114;40.350;2022-08-02T05:24:28;8.67;8.67;6.00
72509;PMS5003;60532;56.114;40.350;2022-08-02T05:29:28;8.00;6.67;5.00
72509;PMS5003;60532;56.114;40.350;2022-08-02T05:34:29;6.00;6.00;5.00
72509;PMS5003;60532;56.114;40.350;2022-08-02T05:39:30;5.75;5.75;3.00
72509;PMS5003;60532;56.114;40.350;2022-08-02T05:44:30;6.00;6.00;4.00
72509;PMS5003;60532;56.114;40.350;2022-08-02T05:49:31;5.50;5.50;4.00
72509;PMS5003;60532;56.114;40.350;2022-08-02T05:54:36;6.00;5.75;4.00
72509;PMS5003;60532;56.114;40.350;2022-08-02T05:59:46;5.40;5.40;3.80
72509;PMS5003;60532;56.114;40.350;2022-08-02T06:04:56;4.80;4.80;3.40
72509;PMS5003;60532;56.114;40.350;2022-08-02T06:09:58;4.60;4.60;3.00
72509;PMS5003;60532;56.114;40.350;2022-08-02T06:14:59;5.00;3.60;3.00
72509;PMS5003;60532;56.114;40.350;2022-08-02T06:20:02;3.20;3.20;2.40
72509;PMS5003;60532;56.114;40.350;2022-08-02T06:25:03;6.00;4.75;4.00
72509;PMS5003;60532;56.114;40.350;2022-08-02T06:30:04;4.80;4.80;3.80
72509;PMS5003;60532;56.114;40.350;2022-08-02T06:35:05;5.00;3.20;1.80
72509;PMS5003;60532;56.114;40.350;2022-08-02T06:45:12;4.40;4.40;3.00
72509;PMS5003;60532;56.114;40.350;2022-08-02T06:50:13;4.50;2.00;1.00
72509;PMS5003;60532;56.114;40.350;2022-08-02T06:55:13;6.50;4.75;4.00
72509;PMS5003;60532;56.114;40.350;2022-08-02T07:00:14;4.00;4.00;4.00
72509;PMS5003;60532;56.114;40.350;2022-08-02T07:05:15;5.50;4.75;4.25
72509;PMS5003;60532;56.114;40.350;2022-08-02T07:10:15;3.00;3.00;3.00
72509;PMS5003;60532;56.114;40.350;2022-08-02T07:15:16;5.33;5.33;3.00
72509;PMS5003;60532;56.114;40.350;2022-08-02T07:20:17;4.00;4.00;3.00
72509;PMS5003;60532;56.114;40.350;2022-08-02T07:25:18;5.67;4.00;3.00
72509;PMS5003;60532;56.114;40.350;2022-08-02T07:30:19;4.00;4.00;3.00
72509;PMS5003;60532;56.114;40.350;2022-08-02T07:35:19;4.00;4.00;3.00
72509;PMS5003;60532;56.114;40.350;2022-08-02T07:40:21;4.00;4.00;3.00
72509;PMS5003;60532;56.114;40.350;2022-08-02T07:45:22;4.00;4.00;3.00
72509;PMS5003;60532;56.114;40.350;2022-08-02T07:50:23;3.00;3.00;2.25
72509;PMS5003;60532;56.114;40.350;2022-08-02T07:55:24;5.00;5.00;4.00
72509;PMS5003;60532;56.114;40.350;2022-08-02T08:00:25;5.75;5.75;4.75
72509;PMS5003;60532;56.114;40.350;2022-08-02T08:05:26;5.00;5.00;3.00
72509;PMS5003;60532;56.114;40.350;2022-08-02T08:10:26;6.00;6.00;5.00
72509;PMS5003;60532;56.114;40.350;2022-08-02T08:15:27;5.00;5.00;4.00
72509;PMS5003;60532;56.114;40.350;2022-08-02T08:20:28;5.67;5.67;4.00
72509;PMS5003;60532;56.114;40.350;2022-08-02T08:25:31;4.67;4.67;3.33
72509;PMS5003;60532;56.114;40.350;2022-08-02T08:30:31;7.00;6.00;5.25
72509;PMS5003;60532;56.114;40.350;2022-08-02T08:35:32;5.33;5.00;4.00
72509;PMS5003;60532;56.114;40.350;2022-08-02T08:40:33;6.33;6.33;4.33
72509;PMS5003;60532;56.114;40.350;2022-08-02T08:45:33;6.00;5.00;4.00
72509;PMS5003;60532;56.114;40.350;2022-08-02T08:50:34;5.33;5.33;4.00
72509;PMS5003;60532;56.114;40.350;2022-08-02T08:55:38;4.25;4.25;3.25
72509;PMS5003;60532;56.114;40.350;2022-08-02T09:00:39;5.00;5.00;4.00
72509;PMS5003;60532;56.114;40.350;2022-08-02T09:05:40;4.75;4.00;3.00
72509;PMS5003;60532;56.114;40.350;2022-08-02T09:10:43;5.25;5.25;4.00
72509;PMS5003;60532;56.114;40.350;2022-08-02T09:15:45;5.00;5.00;4.00
72509;PMS5003;60532;56.114;40.350;2022-08-02T09:20:53;8.75;5.75;4.00
72509;PMS5003;60532;56.114;40.350;2022-08-02T09:25:57;6.00;6.00;4.00
72509;PMS5003;60532;56.114;40.350;2022-08-02T09:31:02;6.00;6.00;5.00
72509;PMS5003;60532;56.114;40.350;2022-08-02T09:36:05;5.25;5.25;4.00
72509;PMS5003;60532;56.114;40.350;2022-08-02T09:41:06;3.75;3.75;3.25
72509;PMS5003;60532;56.114;40.350;2022-08-02T09:46:21;4.00;4.00;2.25
72509;PMS5003;60532;56.114;40.350;2022-08-02T09:51:22;7.75;6.50;4.75
72509;PMS5003;60532;56.114;40.350;2022-08-02T09:56:24;4.75;4.75;3.50
72509;PMS5003;60532;56.114;40.350;2022-08-02T10:01:32;5.75;4.75;3.50
72509;PMS5003;60532;56.114;40.350;2022-08-02T10:06:33;5.00;5.00;4.00
72509;PMS5003;60532;56.114;40.350;2022-08-02T10:11:34;6.00;6.00;4.00
72509;PMS5003;60532;56.114;40.350;2022-08-02T10:16:41;4.75;4.75;4.00
72509;PMS5003;60532;56.114;40.350;2022-08-02T10:21:47;6.00;6.00;4.50
72509;PMS5003;60532;56.114;40.350;2022-08-02T10:26:50;5.00;5.00;4.00
72509;PMS5003;60532;56.114;40.350;2022-08-02T10:32:07;5.75;5.75;4.75
72509;PMS5003;60532;56.114;40.350;2022-08-02T10:37:08;5.25;5.25;4.00
72509;PMS5003;60532;56.114;40.350;2022-08-02T10:42:11;4.25;4.25;2.50
72509;PMS5003;60532;56.114;40.350;2022-08-02T10:52:12;6.33;6.33;4.67
72509;PMS5003;60532;56.114;40.350;2022-08-02T10:57:32;6.33;6.33;4.00
72509;PMS5003;60532;56.114;40.350;2022-08-02T11:02:46;6.25;6.25;4.75
72509;PMS5003;60532;56.114;40.350;2022-08-02T11:07:48;5.00;5.00;4.00
72509;PMS5003;60532;56.114;40.350;2022-08-02T11:18:08;8.50;8.50;5.00
72509;PMS5003;60532;56.114;40.350;2022-08-02T11:28:27;6.00;6.00;5.00
72509;PMS5003;60532;56.114;40.350;2022-08-02T11:33:29;8.50;7.75;6.00
72509;PMS5003;60532;56.114;40.350;2022-08-02T11:38:30;7.00;7.00;5.00
72509;PMS5003;60532;56.114;40.350;2022-08-02T11:43:30;7.67;7.33;5.00
72509;PMS5003;60532;56.114;40.350;2022-08-02T11:48:32;9.67;7.00;5.67
72509;PMS5003;60532;56.114;40.350;2022-08-02T11:53:33;6.00;6.00;5.00
72509;PMS5003;60532;56.114;40.350;2022-08-02T11:58:39;8.00;7.00;6.00
72509;PMS5003;60532;56.114;40.350;2022-08-02T12:03:40;7.33;7.33;6.00
72509;PMS5003;60532;56.114;40.350;2022-08-02T12:08:41;9.00;7.00;6.00
72509;PMS5003;60532;56.114;40.350;2022-08-02T12:13:42;9.33;7.33;6.67
72509;PMS5003;60532;56.114;40.350;2022-08-02T12:18:47;6.75;6.75;4.75
72509;PMS5003;60532;56.114;40.350;2022-08-02T12:24:06;7.25;7.25;5.00
72509;PMS5003;60532;56.114;40.350;2022-08-02T12:29:06;3.33;3.33;2.33
72509;PMS5003;60532;56.114;40.350;2022-08-02T12:34:14;6.00;6.00;4.67
72509;PMS5003;60532;56.114;40.350;2022-08-02T12:39:16;6.25;6.25;5.00
72509;PMS5003;60532;56.114;40.350;2022-08-02T12:44:17;7.00;7.00;4.67
72509;PMS5003;60532;56.114;40.350;2022-08-02T12:49:17;6.33;6.00;4.33
72509;PMS5003;60532;56.114;40.350;2022-08-02T12:54:19;8.50;8.50;6.00
72509;PMS5003;60532;56.114;40.350;2022-08-02T12:59:34;7.50;7.50;5.50
72509;PMS5003;60532;56.114;40.350;2022-08-02T13:04:35;7.50;7.50;4.75
72509;PMS5003;60532;56.114;40.350;2022-08-02T13:09:38;8.00;8.00;6.00
72509;PMS5003;60532;56.114;40.350;2022-08-02T13:14:39;10.00;9.00;6.50
72509;PMS5003;60532;56.114;40.350;2022-08-02T13:19:41;7.50;7.50;5.75
72509;PMS5003;60532;56.114;40.350;2022-08-02T13:24:41;9.33;9.33;5.33
72509;PMS5003;60532;56.114;40.350;2022-08-02T13:29:42;7.67;7.33;4.33
72509;PMS5003;60532;56.114;40.350;2022-08-02T13:34:42;8.67;8.00;5.67
72509;PMS5003;60532;56.114;40.350;2022-08-02T13:39:43;8.00;8.00;6.00
72509;PMS5003;60532;56.114;40.350;2022-08-02T13:44:44;7.00;7.00;5.00
72509;PMS5003;60532;56.114;40.350;2022-08-02T13:49:44;5.67;5.67;4.00
72509;PMS5003;60532;56.114;40.350;2022-08-02T13:54:45;5.00;5.00;4.00
72509;PMS5003;60532;56.114;40.350;2022-08-02T13:59:45;5.33;5.33;4.00
72509;PMS5003;60532;56.114;40.350;2022-08-02T14:04:46;5.00;5.00;3.00
72509;PMS5003;60532;56.114;40.350;2022-08-02T14:09:46;8.00;8.00;5.00
72509;PMS5003;60532;56.114;40.350;2022-08-02T14:14:47;7.33;7.33;5.67
72509;PMS5003;60532;56.114;40.350;2022-08-02T14:19:47;8.00;8.00;6.00
72509;PMS5003;60532;56.114;40.350;2022-08-02T14:24:49;8.25;8.25;6.00
72509;PMS5003;60532;56.114;40.350;2022-08-02T14:29:50;9.00;7.00;4.33
72509;PMS5003;60532;56.114;40.350;2022-08-02T14:34:51;6.00;6.00;5.00
72509;PMS5003;60532;56.114;40.350;2022-08-02T14:39:52;7.00;7.00;5.00
72509;PMS5003;60532;56.114;40.350;2022-08-02T14:44:52;7.33;6.00;4.33
72509;PMS5003;60532;56.114;40.350;2022-08-02T14:49:53;6.00;6.00;5.00
72509;PMS5003;60532;56.114;40.350;2022-08-02T14:54:53;4.00;4.00;4.00
72509;PMS5003;60532;56.114;40.350;2022-08-02T14:59:54;7.75;7.75;5.00
72509;PMS5003;60532;56.114;40.350;2022-08-02T15:04:55;7.25;7.25;5.00
72509;PMS5003;60532;56.114;40.350;2022-08-02T15:09:56;9.67;9.67;5.67
72509;PMS5003;60532;56.114;40.350;2022-08-02T15:14:57;10.00;8.67;6.00
72509;PMS5003;60532;56.114;40.350;2022-08-02T15:20:02;8.50;8.50;5.25
72509;PMS5003;60532;56.114;40.350;2022-08-02T15:25:04;8.25;8.25;5.75
72509;PMS5003;60532;56.114;40.350;2022-08-02T15:30:05;8.75;8.25;6.00
72509;PMS5003;60532;56.114;40.350;2022-08-02T15:35:05;7.67;7.67;6.00
72509;PMS5003;60532;56.114;40.350;2022-08-02T15:40:07;8.75;8.75;6.25
72509;PMS5003;60532;56.114;40.350;2022-08-02T15:45:08;7.67;7.67;6.00
72509;PMS5003;60532;56.114;40.350;2022-08-02T15:50:09;9.25;9.25;5.50
72509;PMS5003;60532;56.114;40.350;2022-08-02T15:55:10;9.00;8.33;6.00
72509;PMS5003;60532;56.114;40.350;2022-08-02T16:00:11;9.00;9.00;5.67
72509;PMS5003;60532;56.114;40.350;2022-08-02T16:05:12;8.00;8.00;6.00
72509;PMS5003;60532;56.114;40.350;2022-08-02T16:10:14;10.75;10.00;6.25
72509;PMS5003;60532;56.114;40.350;2022-08-02T16:15:15;6.75;6.75;5.00
72509;PMS5003;60532;56.114;40.350;2022-08-02T16:20:15;10.00;7.67;5.67
72509;PMS5003;60532;56.114;40.350;2022-08-02T16:25:16;11.00;9.67;6.00
72509;PMS5003;60532;56.114;40.350;2022-08-02T16:30:17;8.33;8.33;6.00
72509;PMS5003;60532;56.114;40.350;2022-08-02T16:35:17;9.33;9.33;6.67
72509;PMS5003;60532;56.114;40.350;2022-08-02T16:40:18;8.67;8.67;6.00
72509;PMS5003;60532;56.114;40.350;2022-08-02T16:45:19;9.75;9.00;6.50
72509;PMS5003;60532;56.114;40.350;2022-08-02T16:50:19;10.67;9.67;6.33
72509;PMS5003;60532;56.114;40.350;2022-08-02T16:55:20;9.67;9.67;6.00
72509;PMS5003;60532;56.114;40.350;2022-08-02T17:00:21;9.33;9.00;6.67
72509;PMS5003;60532;56.114;40.350;2022-08-02T17:05:21;10.00;10.00;7.00
72509;PMS5003;60532;56.114;40.350;2022-08-02T17:10:22;9.33;9.33;6.00
72509;PMS5003;60532;56.114;40.350;2022-08-02T17:15:23;7.67;7.67;4.00
72509;PMS5003;60532;56.114;40.350;2022-08-02T17:20:25;9.75;8.75;7.00
72509;PMS5003;60532;56.114;40.350;2022-08-02T17:25:26;11.67;11.33;7.67
72509;PMS5003;60532;56.114;40.350;2022-08-02T17:30:27;10.00;10.00;7.00
72509;PMS5003;60532;56.114;40.350;2022-08-02T17:35:27;10.67;9.67;7.00
72509;PMS5003;60532;56.114;40.350;2022-08-02T17:40:28;13.00;11.00;7.00
72509;PMS5003;60532;56.114;40.350;2022-08-02T17:45:32;10.75;10.75;8.00
72509;PMS5003;60532;56.114;40.350;2022-08-02T17:50:32;11.00;10.00;8.00
72509;PMS5003;60532;56.114;40.350;2022-08-02T17:55:34;9.33;9.33;6.00
72509;PMS5003;60532;56.114;40.350;2022-08-02T18:00:36;10.75;10.75;9.00
72509;PMS5003;60532;56.114;40.350;2022-08-02T18:05:37;9.00;9.00;5.67
72509;PMS5003;60532;56.114;40.350;2022-08-02T18:10:37;11.33;11.00;8.00
72509;PMS5003;60532;56.114;40.350;2022-08-02T18:15:38;11.33;10.00;7.00
72509;PMS5003;60532;56.114;40.350;2022-08-02T18:20:39;7.33;7.33;5.00
72509;PMS5003;60532;56.114;40.350;2022-08-02T18:25:40;8.67;8.67;6.00
72509;PMS5003;60532;56.114;40.350;2022-08-02T18:30:41;9.00;7.25;5.50
72509;PMS5003;60532;56.114;40.350;2022-08-02T18:35:41;12.75;10.50;7.00
72509;PMS5003;60532;56.114;40.350;2022-08-02T18:40:42;9.67;9.67;7.00
72509;PMS5003;60532;56.114;40.350;2022-08-02T18:45:43;11.50;9.75;6.75
72509;PMS5003;60532;56.114;40.350;2022-08-02T18:50:43;11.00;11.00;7.33
72509;PMS5003;60532;56.114;40.350;2022-08-02T18:55:44;9.67;9.67;7.00
72509;PMS5003;60532;56.114;40.350;2022-08-02T19:00:45;10.00;10.00;7.67
72509;PMS5003;60532;56.114;40.350;2022-08-02T19:05:46;11.40;11.40;7.20
72509;PMS5003;60532;56.114;40.350;2022-08-02T19:10:47;12.00;11.00;8.25
72509;PMS5003;60532;56.114;40.350;2022-08-02T19:15:48;9.25;8.75;7.00
72509;PMS5003;60532;56.114;40.350;2022-08-02T19:20:48;9.67;9.67;6.00
72509;PMS5003;60532;56.114;40.350;2022-08-02T19:25:49;11.00;10.00;7.00
72509;PMS5003;60532;56.114;40.350;2022-08-02T19:30:50;9.00;9.00;6.67
72509;PMS5003;60532;56.114;40.350;2022-08-02T19:35:50;7.33;7.33;6.67
72509;PMS5003;60532;56.114;40.350;2022-08-02T19:40:51;9.75;9.75;7.00
72509;PMS5003;60532;56.114;40.350;2022-08-02T19:45:53;12.00;12.00;7.80
72509;PMS5003;60532;56.114;40.350;2022-08-02T19:50:54;10.25;10.00;7.00
72509;PMS5003;60532;56.114;40.350;2022-08-02T19:55:56;10.50;10.50;7.50
72509;PMS5003;60532;56.114;40.350;2022-08-02T20:00:56;8.00;8.00;5.00
72509;PMS5003;60532;56.114;40.350;2022-08-02T20:05:57;11.75;10.25;7.00
72509;PMS5003;60532;56.114;40.350;2022-08-02T20:10:58;10.50;9.75;7.50
72509;PMS5003;60532;56.114;40.350;2022-08-02T20:15:58;12.00;12.00;7.75
72509;PMS5003;60532;56.114;40.350;2022-08-02T20:20:59;15.00;11.00;7.25
72509;PMS5003;60532;56.114;40.350;2022-08-02T20:26:00;11.50;10.50;7.00
72509;PMS5003;60532;56.114;40.350;2022-08-02T20:31:00;11.50;10.25;7.00
72509;PMS5003;60532;56.114;40.350;2022-08-02T20:36:02;13.60;13.20;8.00
72509;PMS5003;60532;56.114;40.350;2022-08-02T20:41:03;9.00;9.00;5.25
72509;PMS5003;60532;56.114;40.350;2022-08-02T20:46:05;12.00;12.00;8.00
72509;PMS5003;60532;56.114;40.350;2022-08-02T20:51:05;10.50;8.75;6.25
72509;PMS5003;60532;56.114;40.350;2022-08-02T20:56:06;12.00;10.00;7.50
72509;PMS5003;60532;56.114;40.350;2022-08-02T21:01:06;15.25;11.75;7.00
72509;PMS5003;60532;56.114;40.350;2022-08-02T21:06:10;12.50;11.00;8.00
72509;PMS5003;60532;56.114;40.350;2022-08-02T21:11:10;12.00;11.80;8.40
72509;PMS5003;60532;56.114;40.350;2022-08-02T21:16:11;9.50;9.50;7.00
72509;PMS5003;60532;56.114;40.350;2022-08-02T21:21:12;12.25;11.00;8.00
72509;PMS5003;60532;56.114;40.350;2022-08-02T21:26:12;8.75;8.75;6.25
72509;PMS5003;60532;56.114;40.350;2022-08-02T21:31:13;14.75;13.00;8.00
72509;PMS5003;60532;56.114;40.350;2022-08-02T21:36:14;9.40;9.40;6.80
72509;PMS5003;60532;56.114;40.350;2022-08-02T21:41:15;13.00;12.25;9.00
72509;PMS5003;60532;56.114;40.350;2022-08-02T21:46:16;13.00;11.20;8.40
72509;PMS5003;60532;56.114;40.350;2022-08-02T21:51:17;11.00;11.00;8.25
72509;PMS5003;60532;56.114;40.350;2022-08-02T21:56:17;10.00;6.00;4.00
72509;PMS5003;60532;56.114;40.350;2022-08-02T22:01:18;11.25;10.75;7.00
72509;PMS5003;60532;56.114;40.350;2022-08-02T22:06:18;11.50;11.50;8.00
72509;PMS5003;60532;56.114;40.350;2022-08-02T22:11:19;12.50;11.75;7.50
72509;PMS5003;60532;56.114;40.350;2022-08-02T22:16:20;11.20;8.80;6.00
72509;PMS5003;60532;56.114;40.350;2022-08-02T22:21:21;7.00;7.00;5.00
72509;PMS5003;60532;56.114;40.350;2022-08-02T22:26:22;9.00;9.00;7.75
72509;PMS5003;60532;56.114;40.350;2022-08-02T22:31:23;11.00;10.50;6.00
72509;PMS5003;60532;56.114;40.350;2022-08-02T22:36:23;14.75;10.75;7.00
72509;PMS5003;60532;56.114;40.350;2022-08-02T22:41:24;10.00;10.00;6.00
72509;PMS5003;60532;56.114;40.350;2022-08-02T22:46:25;11.50;9.75;6.50
72509;PMS5003;60532;56.114;40.350;2022-08-02T22:51:25;11.00;10.00;7.00
72509;PMS5003;60532;56.114;40.350;2022-08-02T22:56:26;10.20;10.20;6.00
72509;PMS5003;60532;56.114;40.350;2022-08-02T23:01:27;11.75;9.75;6.75
72509;PMS5003;60532;56.114;40.350;2022-08-02T23:06:27;9.75;9.75;7.00
72509;PMS5003;60532;56.114;40.350;2022-08-02T23:11:28;8.25;8.25;7.00
72509;PMS5003;60532;56.114;40.350;2022-08-02T23:16:29;10.00;10.00;7.00
72509;PMS5003;60532;56.114;40.350;2022-08-02T23:21:48;11.40;10.20;7.40
72509;PMS5003;60532;56.114;40.350;2022-08-02T23:26:48;9.50;9.25;7.00
72509;PMS5003;60532;56.114;40.350;2022-08-02T23:31:49;9.50;9.50;6.75
72509;PMS5003;60532;56.114;40.350;2022-08-02T23:36:49;8.25;8.25;5.75
72509;PMS5003;60532;56.114;40.350;2022-08-02T23:41:50;10.00;10.00;6.00
72509;PMS5003;60532;56.114;40.350;2022-08-02T23:46:51;10.50;10.00;7.00
72509;PMS5003;60532;56.114;40.350;2022-08-02T23:51:52;9.00;9.00;6.40
72509;PMS5003;60532;56.114;40.350;2022-08-02T23:56:52;8.25;8.25;6.00
